sensor_id;sensor_type;location;lat;lon;timestamp;pressure;altitude;pressure_sealevel;temperature;humidity
6132;BME280;3097;42.692;23.278;2024-02-23T00:01:44;94763.38;;;8.39;62.96
6132;BME280;3097;42.692;23.278;2024-02-23T00:04:10;94752.53;;;8.37;62.74
6132;BME280;3097;42.692;23.278;2024-02-23T00:06:35;94763.59;;;8.38;63.06
6132;BME280;3097;42.692;23.278;2024-02-23T00:09:01;94757.03;;;8.42;62.81
6132;BME280;3097;42.692;23.278;2024-02-23T00:11:27;94725.94;;;8.25;62.84
6132;BME280;3097;42.692;23.278;2024-02-23T00:13:53;94755.63;;;8.46;62.95
6132;BME280;3097;42.692;23.278;2024-02-23T00:16:19;94748.84;;;8.51;62.79
6132;BME280;3097;42.692;23.278;2024-02-23T00:18:45;94715.97;;;8.35;62.78
6132;BME280;3097;42.692;23.278;2024-02-23T00:21:10;94733.22;;;8.53;62.41
6132;BME280;3097;42.692;23.278;2024-02-23T00:23:36;94749.75;;;8.39;62.97
6132;BME280;3097;42.692;23.278;2024-02-23T00:26:02;94749.03;;;8.32;63.12
6132;BME280;3097;42.692;23.278;2024-02-23T00:28:28;94744.25;;;8.29;63.27
6132;BME280;3097;42.692;23.278;2024-02-23T00:30:53;94745.47;;;8.33;62.84
6132;BME280;3097;42.692;23.278;2024-02-23T00:33:19;94748.59;;;8.35;63.25
6132;BME280;3097;42.692;23.278;2024-02-23T00:35:44;94746.44;;;8.32;63.13
6132;BME280;3097;42.692;23.278;2024-02-23T00:38:10;94735.34;;;8.38;63.05
6132;BME280;3097;42.692;23.278;2024-02-23T00:40:36;94741.41;;;8.12;64.15
6132;BME280;3097;42.692;23.278;2024-02-23T00:43:02;94734.94;;;8.09;64.11
6132;BME280;3097;42.692;23.278;2024-02-23T00:45:28;94663.91;;;7.78;64.37
6132;BME280;3097;42.692;23.278;2024-02-23T00:47:54;94748.38;;;8.11;64.31
6132;BME280;3097;42.692;23.278;2024-02-23T00:50:19;94719.34;;;8.11;64.66
6132;BME280;3097;42.692;23.278;2024-02-23T00:52:45;94719.28;;;8.18;64.02
6132;BME280;3097;42.692;23.278;2024-02-23T00:55:11;94710.91;;;8.04;64.36
6132;BME280;3097;42.692;23.278;2024-02-23T00:57:38;94730.09;;;8.20;64.39
6132;BME280;3097;42.692;23.278;2024-02-23T01:00:05;94726.63;;;8.39;63.98
6132;BME280;3097;42.692;23.278;2024-02-23T01:02:31;94724.94;;;8.51;63.40
6132;BME280;3097;42.692;23.278;2024-02-23T01:04:58;94704.94;;;8.35;63.47
6132;BME280;3097;42.692;23.278;2024-02-23T01:07:24;94704.59;;;8.25;63.95
6132;BME280;3097;42.692;23.278;2024-02-23T01:09:50;94681.38;;;8.13;63.70
6132;BME280;3097;42.692;23.278;2024-02-23T01:12:16;94703.16;;;8.10;63.96
6132;BME280;3097;42.692;23.278;2024-02-23T01:14:41;94717.06;;;8.21;63.83
6132;BME280;3097;42.692;23.278;2024-02-23T01:17:07;94718.44;;;8.24;63.76
6132;BME280;3097;42.692;23.278;2024-02-23T01:19:32;94696.72;;;8.20;63.44
6132;BME280;3097;42.692;23.278;2024-02-23T01:21:58;94689.25;;;8.18;63.86
6132;BME280;3097;42.692;23.278;2024-02-23T01:24:27;94702.44;;;8.22;63.68
6132;BME280;3097;42.692;23.278;2024-02-23T01:26:54;94690.41;;;8.22;63.71
6132;BME280;3097;42.692;23.278;2024-02-23T01:29:21;94707.13;;;8.06;64.32
6132;BME280;3097;42.692;23.278;2024-02-23T01:31:48;94691.72;;;8.06;64.39
6132;BME280;3097;42.692;23.278;2024-02-23T01:34:13;94685.72;;;8.12;64.02
6132;BME280;3097;42.692;23.278;2024-02-23T01:36:39;94648.91;;;8.00;64.10
6132;BME280;3097;42.692;23.278;2024-02-23T01:39:05;94695.09;;;8.32;63.85
6132;BME280;3097;42.692;23.278;2024-02-23T01:41:30;94669.66;;;8.24;63.81
6132;BME280;3097;42.692;23.278;2024-02-23T01:43:57;94691.09;;;8.36;63.45
6132;BME280;3097;42.692;23.278;2024-02-23T01:46:23;94658.88;;;8.15;63.59
6132;BME280;3097;42.692;23.278;2024-02-23T01:48:49;94670.13;;;8.39;63.42
6132;BME280;3097;42.692;23.278;2024-02-23T01:51:14;94697.91;;;8.24;64.14
6132;BME280;3097;42.692;23.278;2024-02-23T01:53:40;94651.69;;;8.24;63.55
6132;BME280;3097;42.692;23.278;2024-02-23T01:56:06;94687.16;;;8.08;63.91
6132;BME280;3097;42.692;23.278;2024-02-23T01:58:33;94672.44;;;7.97;64.56
6132;BME280;3097;42.692;23.278;2024-02-23T02:01:00;94674.00;;;7.98;64.72
6132;BME280;3097;42.692;23.278;2024-02-23T02:03:26;94668.19;;;8.09;65.05
6132;BME280;3097;42.692;23.278;2024-02-23T02:05:53;94678.63;;;8.14;64.05
6132;BME280;3097;42.692;23.278;2024-02-23T02:08:20;94668.59;;;8.06;64.20
6132;BME280;3097;42.692;23.278;2024-02-23T02:10:46;94663.69;;;8.05;64.35
6132;BME280;3097;42.692;23.278;2024-02-23T02:13:12;94626.19;;;7.79;64.38
6132;BME280;3097;42.692;23.278;2024-02-23T02:15:38;94621.09;;;7.97;64.12
6132;BME280;3097;42.692;23.278;2024-02-23T02:18:04;94662.34;;;8.21;63.85
6132;BME280;3097;42.692;23.278;2024-02-23T02:20:32;94681.91;;;8.22;64.27
6132;BME280;3097;42.692;23.278;2024-02-23T02:22:58;94666.34;;;8.16;64.48
6132;BME280;3097;42.692;23.278;2024-02-23T02:25:24;94667.22;;;8.29;64.12
6132;BME280;3097;42.692;23.278;2024-02-23T02:27:49;94663.84;;;8.35;63.71
6132;BME280;3097;42.692;23.278;2024-02-23T02:30:15;94663.00;;;8.41;63.59
6132;BME280;3097;42.692;23.278;2024-02-23T02:32:41;94640.75;;;8.28;63.63
6132;BME280;3097;42.692;23.278;2024-02-23T02:35:10;94679.16;;;8.48;63.12
6132;BME280;3097;42.692;23.278;2024-02-23T02:37:37;94680.06;;;8.29;64.15
6132;BME280;3097;42.692;23.278;2024-02-23T02:40:03;94674.72;;;8.30;64.19
6132;BME280;3097;42.692;23.278;2024-02-23T02:42:30;94668.75;;;8.36;63.90
6132;BME280;3097;42.692;23.278;2024-02-23T02:44:55;94668.41;;;8.33;64.17
6132;BME280;3097;42.692;23.278;2024-02-23T02:47:21;94664.59;;;8.42;64.02
6132;BME280;3097;42.692;23.278;2024-02-23T02:49:46;94671.44;;;8.48;63.97
6132;BME280;3097;42.692;23.278;2024-02-23T02:52:11;94691.69;;;8.38;64.29
6132;BME280;3097;42.692;23.278;2024-02-23T02:54:38;94682.31;;;8.43;64.00
6132;BME280;3097;42.692;23.278;2024-02-23T02:57:03;94657.22;;;8.21;64.91
6132;BME280;3097;42.692;23.278;2024-02-23T02:59:29;94662.34;;;8.21;65.13
6132;BME280;3097;42.692;23.278;2024-02-23T03:01:54;94672.44;;;8.22;65.26
6132;BME280;3097;42.692;23.278;2024-02-23T03:04:20;94677.03;;;8.13;65.25
6132;BME280;3097;42.692;23.278;2024-02-23T03:06:46;94644.78;;;7.99;65.64
6132;BME280;3097;42.692;23.278;2024-02-23T03:09:12;94675.06;;;8.15;65.72
6132;BME280;3097;42.692;23.278;2024-02-23T03:11:37;94688.94;;;8.08;66.13
6132;BME280;3097;42.692;23.278;2024-02-23T03:14:03;94688.47;;;8.18;65.96
6132;BME280;3097;42.692;23.278;2024-02-23T03:16:28;94669.22;;;8.33;65.54
6132;BME280;3097;42.692;23.278;2024-02-23T03:18:56;94682.41;;;8.37;65.36
6132;BME280;3097;42.692;23.278;2024-02-23T03:21:21;94675.91;;;8.28;65.84
6132;BME280;3097;42.692;23.278;2024-02-23T03:23:47;94686.19;;;8.28;65.59
6132;BME280;3097;42.692;23.278;2024-02-23T03:26:12;94673.91;;;8.11;66.36
6132;BME280;3097;42.692;23.278;2024-02-23T03:28:38;94678.63;;;8.14;66.54
6132;BME280;3097;42.692;23.278;2024-02-23T03:31:04;94681.31;;;8.20;66.41
6132;BME280;3097;42.692;23.278;2024-02-23T03:33:30;94663.16;;;8.21;66.18
6132;BME280;3097;42.692;23.278;2024-02-23T03:35:57;94672.34;;;8.10;66.43
6132;BME280;3097;42.692;23.278;2024-02-23T03:38:23;94660.56;;;8.21;66.34
6132;BME280;3097;42.692;23.278;2024-02-23T03:40:48;94680.56;;;8.19;66.48
6132;BME280;3097;42.692;23.278;2024-02-23T03:43:14;94679.88;;;8.05;67.13
6132;BME280;3097;42.692;23.278;2024-02-23T03:45:39;94655.78;;;8.06;66.99
6132;BME280;3097;42.692;23.278;2024-02-23T03:48:05;94664.25;;;8.07;67.08
6132;BME280;3097;42.692;23.278;2024-02-23T03:50:30;94657.00;;;8.04;67.27
6132;BME280;3097;42.692;23.278;2024-02-23T03:52:56;94674.25;;;8.15;67.17
6132;BME280;3097;42.692;23.278;2024-02-23T03:55:22;94664.91;;;8.02;67.66
6132;BME280;3097;42.692;23.278;2024-02-23T03:57:48;94682.16;;;8.13;67.32
6132;BME280;3097;42.692;23.278;2024-02-23T04:00:14;94664.78;;;8.15;67.39
6132;BME280;3097;42.692;23.278;2024-02-23T04:02:40;94672.22;;;8.24;67.22
6132;BME280;3097;42.692;23.278;2024-02-23T04:05:06;94664.06;;;8.08;67.47
6132;BME280;3097;42.692;23.278;2024-02-23T04:07:32;94667.81;;;8.06;67.39
6132;BME280;3097;42.692;23.278;2024-02-23T04:09:57;94637.66;;;7.76;67.83
6132;BME280;3097;42.692;23.278;2024-02-23T04:12:23;94671.63;;;8.03;67.90
6132;BME280;3097;42.692;23.278;2024-02-23T04:14:49;94689.66;;;7.90;68.09
6132;BME280;3097;42.692;23.278;2024-02-23T04:17:15;94688.56;;;8.04;67.95
6132;BME280;3097;42.692;23.278;2024-02-23T04:19:41;94668.19;;;8.09;67.75
6132;BME280;3097;42.692;23.278;2024-02-23T04:22:08;94688.56;;;8.04;67.60
6132;BME280;3097;42.692;23.278;2024-02-23T04:24:38;94697.84;;;8.05;68.00
6132;BME280;3097;42.692;23.278;2024-02-23T04:27:05;94662.94;;;7.98;67.93
6132;BME280;3097;42.692;23.278;2024-02-23T04:29:31;94669.41;;;8.07;67.82
6132;BME280;3097;42.692;23.278;2024-02-23T04:31:58;94665.31;;;7.99;67.65
6132;BME280;3097;42.692;23.278;2024-02-23T04:34:23;94621.25;;;7.53;68.75
6132;BME280;3097;42.692;23.278;2024-02-23T04:36:49;94674.03;;;7.67;69.40
6132;BME280;3097;42.692;23.278;2024-02-23T04:39:14;94673.16;;;7.80;68.87
6132;BME280;3097;42.692;23.278;2024-02-23T04:41:40;94694.75;;;7.72;69.35
6132;BME280;3097;42.692;23.278;2024-02-23T04:44:06;94684.13;;;7.62;69.00
6132;BME280;3097;42.692;23.278;2024-02-23T04:46:31;94668.53;;;7.63;69.23
6132;BME280;3097;42.692;23.278;2024-02-23T04:48:57;94693.25;;;7.58;69.89
6132;BME280;3097;42.692;23.278;2024-02-23T04:51:22;94706.06;;;7.58;69.80
6132;BME280;3097;42.692;23.278;2024-02-23T04:53:49;94675.84;;;7.60;69.29
6132;BME280;3097;42.692;23.278;2024-02-23T04:56:14;94694.44;;;7.55;69.50
6132;BME280;3097;42.692;23.278;2024-02-23T04:58:40;94695.44;;;7.54;69.66
6132;BME280;3097;42.692;23.278;2024-02-23T05:01:08;94691.63;;;7.63;69.56
6132;BME280;3097;42.692;23.278;2024-02-23T05:03:34;94692.81;;;7.61;69.33
6132;BME280;3097;42.692;23.278;2024-02-23T05:05:59;94696.22;;;7.55;69.42
6132;BME280;3097;42.692;23.278;2024-02-23T05:08:25;94703.16;;;7.48;69.74
6132;BME280;3097;42.692;23.278;2024-02-23T05:10:52;94690.22;;;7.36;69.97
6132;BME280;3097;42.692;23.278;2024-02-23T05:13:18;94686.13;;;7.28;70.36
6132;BME280;3097;42.692;23.278;2024-02-23T05:15:44;94723.03;;;7.21;70.94
6132;BME280;3097;42.692;23.278;2024-02-23T05:18:09;94706.66;;;7.15;70.67
6132;BME280;3097;42.692;23.278;2024-02-23T05:20:35;94695.00;;;6.75;72.57
6132;BME280;3097;42.692;23.278;2024-02-23T05:23:00;94722.38;;;6.81;72.30
6132;BME280;3097;42.692;23.278;2024-02-23T05:25:26;94704.66;;;6.73;73.43
6132;BME280;3097;42.692;23.278;2024-02-23T05:27:52;94730.25;;;6.79;73.47
6132;BME280;3097;42.692;23.278;2024-02-23T05:30:18;94700.16;;;6.68;73.44
6132;BME280;3097;42.692;23.278;2024-02-23T05:32:43;94715.66;;;6.86;72.81
6132;BME280;3097;42.692;23.278;2024-02-23T05:35:09;94724.28;;;6.98;72.54
6132;BME280;3097;42.692;23.278;2024-02-23T05:37:35;94730.56;;;7.09;72.29
6132;BME280;3097;42.692;23.278;2024-02-23T05:40:03;94699.25;;;6.94;72.21
6132;BME280;3097;42.692;23.278;2024-02-23T05:42:32;94707.09;;;7.12;72.07
6132;BME280;3097;42.692;23.278;2024-02-23T05:44:57;94611.75;;;6.52;71.68
6132;BME280;3097;42.692;23.278;2024-02-23T05:47:23;94722.75;;;7.35;73.61
6132;BME280;3097;42.692;23.278;2024-02-23T05:49:50;94721.00;;;7.29;72.24
6132;BME280;3097;42.692;23.278;2024-02-23T05:52:15;94715.44;;;7.39;83.06
6132;BME280;3097;42.692;23.278;2024-02-23T05:54:41;94727.16;;;7.60;74.84
6132;BME280;3097;42.692;23.278;2024-02-23T05:57:07;94732.22;;;7.73;71.85
6132;BME280;3097;42.692;23.278;2024-02-23T05:59:32;94731.41;;;7.79;72.24
6132;BME280;3097;42.692;23.278;2024-02-23T06:01:58;94732.66;;;7.63;71.89
6132;BME280;3097;42.692;23.278;2024-02-23T06:04:24;94731.44;;;7.72;71.80
6132;BME280;3097;42.692;23.278;2024-02-23T06:06:49;94751.38;;;7.70;71.45
6132;BME280;3097;42.692;23.278;2024-02-23T06:09:15;94746.44;;;7.69;71.25
6132;BME280;3097;42.692;23.278;2024-02-23T06:11:41;94721.03;;;7.61;71.65
6132;BME280;3097;42.692;23.278;2024-02-23T06:14:07;94694.75;;;7.34;71.58
6132;BME280;3097;42.692;23.278;2024-02-23T06:16:33;94748.56;;;7.78;72.18
6132;BME280;3097;42.692;23.278;2024-02-23T06:18:59;94743.59;;;7.84;71.36
6132;BME280;3097;42.692;23.278;2024-02-23T06:21:24;94749.09;;;7.56;71.07
6132;BME280;3097;42.692;23.278;2024-02-23T06:23:50;94758.69;;;7.67;71.18
6132;BME280;3097;42.692;23.278;2024-02-23T06:26:15;94757.66;;;7.74;71.70
6132;BME280;3097;42.692;23.278;2024-02-23T06:28:41;94745.56;;;7.88;70.34
6132;BME280;3097;42.692;23.278;2024-02-23T06:31:08;94755.34;;;7.98;70.25
6132;BME280;3097;42.692;23.278;2024-02-23T06:33:34;94762.41;;;8.09;70.25
6132;BME280;3097;42.692;23.278;2024-02-23T06:35:59;94751.78;;;7.99;68.89
6132;BME280;3097;42.692;23.278;2024-02-23T06:38:25;94759.25;;;8.07;69.22
6132;BME280;3097;42.692;23.278;2024-02-23T06:40:51;94745.00;;;8.11;68.60
6132;BME280;3097;42.692;23.278;2024-02-23T06:43:17;94755.47;;;8.09;68.81
6132;BME280;3097;42.692;23.278;2024-02-23T06:45:43;94769.25;;;8.15;68.97
6132;BME280;3097;42.692;23.278;2024-02-23T06:48:08;94756.06;;;8.11;68.69
6132;BME280;3097;42.692;23.278;2024-02-23T06:50:35;94756.47;;;8.08;69.54
6132;BME280;3097;42.692;23.278;2024-02-23T06:53:00;94735.19;;;8.01;69.12
6132;BME280;3097;42.692;23.278;2024-02-23T06:55:27;94755.38;;;8.23;69.44
6132;BME280;3097;42.692;23.278;2024-02-23T06:57:53;94768.06;;;8.49;69.41
6132;BME280;3097;42.692;23.278;2024-02-23T07:00:20;94767.41;;;8.53;68.09
6132;BME280;3097;42.692;23.278;2024-02-23T07:02:46;94736.28;;;8.43;67.16
6132;BME280;3097;42.692;23.278;2024-02-23T07:05:12;94766.75;;;8.58;66.85
6132;BME280;3097;42.692;23.278;2024-02-23T07:07:39;94771.56;;;8.54;67.16
6132;BME280;3097;42.692;23.278;2024-02-23T07:10:06;94746.34;;;8.45;67.79
6132;BME280;3097;42.692;23.278;2024-02-23T07:12:31;94766.41;;;8.79;67.31
6132;BME280;3097;42.692;23.278;2024-02-23T07:14:57;94766.53;;;8.84;66.88
6132;BME280;3097;42.692;23.278;2024-02-23T07:17:23;94742.97;;;8.87;66.31
6132;BME280;3097;42.692;23.278;2024-02-23T07:19:49;94731.41;;;8.97;65.78
6132;BME280;3097;42.692;23.278;2024-02-23T07:22:16;94743.41;;;9.39;64.25
6132;BME280;3097;42.692;23.278;2024-02-23T07:24:43;94747.94;;;11.20;60.72
6132;BME280;3097;42.692;23.278;2024-02-23T07:27:09;94711.72;;;13.49;51.85
6132;BME280;3097;42.692;23.278;2024-02-23T07:29:35;94740.09;;;16.23;47.22
6132;BME280;3097;42.692;23.278;2024-02-23T07:32:01;94741.44;;;18.44;41.83
6132;BME280;3097;42.692;23.278;2024-02-23T07:34:26;94738.38;;;20.08;38.12
6132;BME280;3097;42.692;23.278;2024-02-23T07:36:52;94715.34;;;21.62;34.60
6132;BME280;3097;42.692;23.278;2024-02-23T07:39:18;94731.69;;;21.95;33.55
6132;BME280;3097;42.692;23.278;2024-02-23T07:41:43;94727.94;;;22.68;31.55
6132;BME280;3097;42.692;23.278;2024-02-23T07:44:09;94734.97;;;23.43;30.50
6132;BME280;3097;42.692;23.278;2024-02-23T07:46:34;94694.19;;;23.72;29.63
6132;BME280;3097;42.692;23.278;2024-02-23T07:49:00;94717.84;;;22.17;31.21
6132;BME280;3097;42.692;23.278;2024-02-23T07:51:25;94701.34;;;21.53;32.79
6132;BME280;3097;42.692;23.278;2024-02-23T07:53:51;94727.31;;;22.94;32.34
6132;BME280;3097;42.692;23.278;2024-02-23T07:56:17;94731.16;;;23.58;31.16
6132;BME280;3097;42.692;23.278;2024-02-23T07:58:43;94722.72;;;24.13;30.35
6132;BME280;3097;42.692;23.278;2024-02-23T08:01:09;94726.00;;;24.36;29.75
6132;BME280;3097;42.692;23.278;2024-02-23T08:03:34;94721.63;;;24.48;30.02
6132;BME280;3097;42.692;23.278;2024-02-23T08:06:00;94728.53;;;23.58;29.59
6132;BME280;3097;42.692;23.278;2024-02-23T08:08:26;94725.69;;;22.53;31.84
6132;BME280;3097;42.692;23.278;2024-02-23T08:10:53;94710.34;;;21.75;33.25
6132;BME280;3097;42.692;23.278;2024-02-23T08:13:18;94728.81;;;21.15;34.56
6132;BME280;3097;42.692;23.278;2024-02-23T08:15:44;94725.75;;;20.67;37.12
6132;BME280;3097;42.692;23.278;2024-02-23T08:18:10;94703.56;;;20.27;36.58
6132;BME280;3097;42.692;23.278;2024-02-23T08:20:36;94706.44;;;19.74;37.25
6132;BME280;3097;42.692;23.278;2024-02-23T08:23:01;94703.72;;;18.89;38.26
6132;BME280;3097;42.692;23.278;2024-02-23T08:25:27;94722.03;;;18.21;39.91
6132;BME280;3097;42.692;23.278;2024-02-23T08:27:55;94734.63;;;17.70;40.70
6132;BME280;3097;42.692;23.278;2024-02-23T08:30:22;94717.63;;;17.13;42.21
6132;BME280;3097;42.692;23.278;2024-02-23T08:32:47;94728.66;;;16.59;43.65
6132;BME280;3097;42.692;23.278;2024-02-23T08:35:13;94693.81;;;16.30;44.24
6132;BME280;3097;42.692;23.278;2024-02-23T08:37:40;94719.78;;;16.50;45.00
6132;BME280;3097;42.692;23.278;2024-02-23T08:40:07;94722.94;;;16.37;45.25
6132;BME280;3097;42.692;23.278;2024-02-23T08:42:33;94721.88;;;16.53;45.51
6132;BME280;3097;42.692;23.278;2024-02-23T08:44:59;94712.50;;;16.57;44.75
6132;BME280;3097;42.692;23.278;2024-02-23T08:47:24;94710.72;;;16.38;44.14
6132;BME280;3097;42.692;23.278;2024-02-23T08:49:53;94683.88;;;16.02;44.85
6132;BME280;3097;42.692;23.278;2024-02-23T08:52:18;94713.56;;;16.06;44.71
6132;BME280;3097;42.692;23.278;2024-02-23T08:54:44;94718.22;;;15.94;45.04
6132;BME280;3097;42.692;23.278;2024-02-23T08:57:10;94713.25;;;15.87;45.25
6132;BME280;3097;42.692;23.278;2024-02-23T08:59:35;94720.78;;;15.78;45.69
6132;BME280;3097;42.692;23.278;2024-02-23T09:02:01;94717.41;;;15.78;45.38
6132;BME280;3097;42.692;23.278;2024-02-23T09:04:26;94704.13;;;15.79;46.07
6132;BME280;3097;42.692;23.278;2024-02-23T09:06:52;94708.84;;;15.77;45.12
6132;BME280;3097;42.692;23.278;2024-02-23T09:09:18;94711.47;;;15.93;44.78
6132;BME280;3097;42.692;23.278;2024-02-23T09:11:44;94711.72;;;15.96;44.54
6132;BME280;3097;42.692;23.278;2024-02-23T09:14:09;94715.06;;;15.81;44.52
6132;BME280;3097;42.692;23.278;2024-02-23T09:16:35;94714.53;;;15.74;44.54
6132;BME280;3097;42.692;23.278;2024-02-23T09:19:01;94691.09;;;15.54;45.19
6132;BME280;3097;42.692;23.278;2024-02-23T09:21:26;94710.00;;;15.49;45.55
6132;BME280;3097;42.692;23.278;2024-02-23T09:23:52;94706.38;;;15.50;46.12
6132;BME280;3097;42.692;23.278;2024-02-23T09:26:17;94704.03;;;15.44;45.18
6132;BME280;3097;42.692;23.278;2024-02-23T09:28:43;94684.22;;;15.23;45.35
6132;BME280;3097;42.692;23.278;2024-02-23T09:31:10;94717.50;;;15.36;45.28
6132;BME280;3097;42.692;23.278;2024-02-23T09:33:36;94682.84;;;15.05;45.69
6132;BME280;3097;42.692;23.278;2024-02-23T09:36:02;94700.81;;;15.17;45.47
6132;BME280;3097;42.692;23.278;2024-02-23T09:38:28;94704.94;;;15.13;45.73
6132;BME280;3097;42.692;23.278;2024-02-23T09:40:53;94708.28;;;15.03;46.07
6132;BME280;3097;42.692;23.278;2024-02-23T09:43:22;94710.63;;;15.04;46.39
6132;BME280;3097;42.692;23.278;2024-02-23T09:45:51;94711.44;;;15.10;46.33
6132;BME280;3097;42.692;23.278;2024-02-23T09:48:18;94705.22;;;15.16;46.74
6132;BME280;3097;42.692;23.278;2024-02-23T09:50:45;94701.31;;;15.19;46.97
6132;BME280;3097;42.692;23.278;2024-02-23T09:53:12;94693.78;;;15.12;47.40
6132;BME280;3097;42.692;23.278;2024-02-23T09:55:38;94705.25;;;15.21;47.97
6132;BME280;3097;42.692;23.278;2024-02-23T09:58:04;94693.56;;;15.24;47.34
6132;BME280;3097;42.692;23.278;2024-02-23T10:00:32;94701.13;;;15.30;48.29
6132;BME280;3097;42.692;23.278;2024-02-23T10:02:58;94691.00;;;15.34;47.66
6132;BME280;3097;42.692;23.278;2024-02-23T10:05:29;94691.63;;;15.61;47.46
6132;BME280;3097;42.692;23.278;2024-02-23T10:07:55;94681.81;;;15.78;46.09
6132;BME280;3097;42.692;23.278;2024-02-23T10:10:29;94658.41;;;15.63;46.66
6132;BME280;3097;42.692;23.278;2024-02-23T10:12:54;94679.19;;;15.88;45.35
6132;BME280;3097;42.692;23.278;2024-02-23T10:15:20;94679.22;;;15.83;45.12
6132;BME280;3097;42.692;23.278;2024-02-23T10:17:45;94674.78;;;15.84;45.70
6132;BME280;3097;42.692;23.278;2024-02-23T10:20:11;94678.44;;;15.83;46.02
6132;BME280;3097;42.692;23.278;2024-02-23T10:22:36;94683.34;;;15.79;45.60
6132;BME280;3097;42.692;23.278;2024-02-23T10:25:02;94684.94;;;15.96;45.05
6132;BME280;3097;42.692;23.278;2024-02-23T10:27:27;94681.81;;;15.88;45.77
6132;BME280;3097;42.692;23.278;2024-02-23T10:29:53;94678.69;;;15.97;45.27
6132;BME280;3097;42.692;23.278;2024-02-23T10:32:19;94649.31;;;15.91;44.62
6132;BME280;3097;42.692;23.278;2024-02-23T10:34:47;94674.53;;;15.96;44.99
6132;BME280;3097;42.692;23.278;2024-02-23T10:37:16;94620.97;;;15.59;45.61
6132;BME280;3097;42.692;23.278;2024-02-23T10:39:42;94664.16;;;16.01;45.10
6132;BME280;3097;42.692;23.278;2024-02-23T10:42:09;94662.84;;;15.98;43.95
6132;BME280;3097;42.692;23.278;2024-02-23T10:44:36;94654.25;;;15.87;44.67
6132;BME280;3097;42.692;23.278;2024-02-23T10:47:02;94654.00;;;16.04;44.94
6132;BME280;3097;42.692;23.278;2024-02-23T10:49:29;94654.78;;;16.05;44.42
6132;BME280;3097;42.692;23.278;2024-02-23T10:51:56;94650.88;;;16.02;44.28
6132;BME280;3097;42.692;23.278;2024-02-23T10:54:22;94650.63;;;16.04;44.93
6132;BME280;3097;42.692;23.278;2024-02-23T10:56:50;94646.47;;;16.08;44.54
6132;BME280;3097;42.692;23.278;2024-02-23T10:59:17;94632.94;;;16.01;43.98
6132;BME280;3097;42.692;23.278;2024-02-23T11:01:51;94635.56;;;16.01;43.90
6132;BME280;3097;42.692;23.278;2024-02-23T11:04:18;94619.44;;;15.78;43.54
6132;BME280;3097;42.692;23.278;2024-02-23T11:06:51;94633.72;;;15.91;45.14
6132;BME280;3097;42.692;23.278;2024-02-23T11:09:21;94625.66;;;15.87;42.98
6132;BME280;3097;42.692;23.278;2024-02-23T11:11:57;94617.59;;;15.74;43.66
6132;BME280;3097;42.692;23.278;2024-02-23T11:14:35;94619.41;;;15.68;44.78
6132;BME280;3097;42.692;23.278;2024-02-23T11:17:02;94626.69;;;15.66;44.44
6132;BME280;3097;42.692;23.278;2024-02-23T11:19:33;94603.84;;;15.78;43.01
6132;BME280;3097;42.692;23.278;2024-02-23T11:21:59;94608.25;;;15.68;43.26
6132;BME280;3097;42.692;23.278;2024-02-23T11:24:28;94609.00;;;15.53;44.27
6132;BME280;3097;42.692;23.278;2024-02-23T11:27:00;94606.94;;;15.70;44.35
6132;BME280;3097;42.692;23.278;2024-02-23T11:29:34;94581.19;;;15.59;43.40
6132;BME280;3097;42.692;23.278;2024-02-23T11:32:00;94601.22;;;15.73;43.13
6132;BME280;3097;42.692;23.278;2024-02-23T11:34:29;94599.91;;;15.61;43.90
6132;BME280;3097;42.692;23.278;2024-02-23T11:36:56;94594.47;;;15.82;43.10
6132;BME280;3097;42.692;23.278;2024-02-23T11:39:25;94589.00;;;15.89;43.34
6132;BME280;3097;42.692;23.278;2024-02-23T11:41:51;94591.59;;;15.94;43.44
6132;BME280;3097;42.692;23.278;2024-02-23T11:44:17;94589.78;;;15.95;43.64
6132;BME280;3097;42.692;23.278;2024-02-23T11:46:43;94583.53;;;16.06;43.52
6132;BME280;3097;42.692;23.278;2024-02-23T11:49:10;94593.41;;;16.09;43.07
6132;BME280;3097;42.692;23.278;2024-02-23T11:51:36;94586.66;;;15.98;42.74
6132;BME280;3097;42.692;23.278;2024-02-23T11:54:02;94549.75;;;15.65;43.20
6132;BME280;3097;42.692;23.278;2024-02-23T11:56:29;94532.88;;;15.63;43.46
6132;BME280;3097;42.692;23.278;2024-02-23T11:58:55;94571.09;;;15.77;44.04
6132;BME280;3097;42.692;23.278;2024-02-23T12:01:21;94561.19;;;15.74;42.83
6132;BME280;3097;42.692;23.278;2024-02-23T12:03:47;94568.47;;;15.72;43.32
6132;BME280;3097;42.692;23.278;2024-02-23T12:06:14;94575.75;;;15.75;43.25
6132;BME280;3097;42.692;23.278;2024-02-23T12:08:41;94563.78;;;15.79;43.08
6132;BME280;3097;42.692;23.278;2024-02-23T12:11:08;94515.94;;;15.50;43.65
6132;BME280;3097;42.692;23.278;2024-02-23T12:13:35;94570.06;;;15.78;43.65
6132;BME280;3097;42.692;23.278;2024-02-23T12:16:01;94573.69;;;15.77;43.59
6132;BME280;3097;42.692;23.278;2024-02-23T12:18:28;94478.56;;;15.26;42.23
6132;BME280;3097;42.692;23.278;2024-02-23T12:21:07;94558.09;;;15.77;42.91
6132;BME280;3097;42.692;23.278;2024-02-23T12:23:43;94547.69;;;15.62;44.00
6132;BME280;3097;42.692;23.278;2024-02-23T12:26:10;94544.59;;;15.55;43.92
6132;BME280;3097;42.692;23.278;2024-02-23T12:28:38;94554.97;;;15.60;42.34
6132;BME280;3097;42.692;23.278;2024-02-23T12:31:04;94551.34;;;15.61;42.59
6132;BME280;3097;42.692;23.278;2024-02-23T12:33:40;94543.53;;;15.56;44.15
6132;BME280;3097;42.692;23.278;2024-02-23T12:36:07;94549.00;;;15.60;44.29
6132;BME280;3097;42.692;23.278;2024-02-23T12:38:33;94543.28;;;15.63;43.54
6132;BME280;3097;42.692;23.278;2024-02-23T12:41:02;94536.25;;;15.68;44.00
6132;BME280;3097;42.692;23.278;2024-02-23T12:43:30;94529.50;;;15.77;43.43
6132;BME280;3097;42.692;23.278;2024-02-23T12:45:57;94522.72;;;15.86;41.85
6132;BME280;3097;42.692;23.278;2024-02-23T12:48:23;94469.47;;;15.59;42.01
6132;BME280;3097;42.692;23.278;2024-02-23T12:50:49;94515.97;;;15.80;42.66
6132;BME280;3097;42.692;23.278;2024-02-23T12:53:35;94488.16;;;15.45;43.26
6132;BME280;3097;42.692;23.278;2024-02-23T12:56:02;94510.78;;;15.80;42.28
6132;BME280;3097;42.692;23.278;2024-02-23T12:58:28;94519.63;;;15.74;43.02
6132;BME280;3097;42.692;23.278;2024-02-23T13:00:54;94517.28;;;15.73;42.12
6132;BME280;3097;42.692;23.278;2024-02-23T13:03:20;94511.84;;;15.69;42.60
6132;BME280;3097;42.692;23.278;2024-02-23T13:05:46;94516.50;;;15.82;42.86
6132;BME280;3097;42.692;23.278;2024-02-23T13:08:12;94523.50;;;15.97;42.72
6132;BME280;3097;42.692;23.278;2024-02-23T13:10:37;94513.84;;;16.03;42.55
6132;BME280;3097;42.692;23.278;2024-02-23T13:13:03;94507.66;;;15.94;43.23